Time;durP1;ratioP1;P1;durP2;ratioP2;P2;SDS_P1;SDS_P2;PMS_P1;PMS_P2;Temp;Humidity;BMP_temperature;BMP_pressure;BME280_temperature;BME280_humidity;BME280_pressure;Samples;Min_cycle;Max_cycle;Signal;HPM_P1;HPM_P2
2022/12/18 00:00:09;;;;;;;;;63.50;47.00;;;;;-0.48;60.78;102347.84;2422499;28;45271;-94
2022/12/18 00:01:31;;;;;;;;;65.00;48.25;;;;;-0.47;61.39;102353.06;2423364;28;47313;-93
2022/12/18 00:02:41;;;;;;;;;64.25;46.50;;;;;-0.50;60.88;102345.22;2426188;28;44747;-95
2022/12/18 00:03:56;;;;;;;;;60.25;47.00;;;;;-0.49;61.06;102349.53;2431405;28;47375;-93
2022/12/18 00:05:07;;;;;;;;;65.25;50.75;;;;;-0.49;60.94;102349.53;2434180;28;45253;-92
2022/12/18 00:06:20;;;;;;;;;61.75;46.50;;;;;-0.49;60.35;102348.66;2428824;28;48065;-92
2022/12/18 00:07:30;;;;;;;;;59.25;46.50;;;;;-0.51;60.51;102351.19;2424703;28;45257;-92
2022/12/18 00:08:42;;;;;;;;;52.75;45.50;;;;;-0.52;60.90;102345.97;2424035;28;48079;-92
2022/12/18 00:09:52;;;;;;;;;68.25;48.50;;;;;-0.53;60.77;102345.09;2431550;28;45573;-92
2022/12/18 00:11:07;;;;;;;;;62.25;48.75;;;;;-0.52;60.74;102354.56;2423834;28;46886;-93
2022/12/18 00:12:17;;;;;;;;;62.25;47.00;;;;;-0.52;61.05;102352.00;2425086;28;45249;-92
2022/12/18 00:13:28;;;;;;;;;64.25;49.50;;;;;-0.52;61.11;102354.56;2433628;28;48064;-92
2022/12/18 00:14:38;;;;;;;;;67.25;50.25;;;;;-0.52;60.61;102349.41;2431116;28;44640;-92
2022/12/18 00:15:48;;;;;;;;;59.25;47.00;;;;;-0.51;60.63;102352.88;2424215;28;46962;-93
2022/12/18 00:17:00;;;;;;;;;62.50;47.75;;;;;-0.51;60.79;102350.31;2424527;28;45262;-93
2022/12/18 00:18:10;;;;;;;;;62.50;49.75;;;;;-0.52;60.59;102345.97;2431037;28;47309;-92
2022/12/18 00:19:21;;;;;;;;;59.75;47.75;;;;;-0.54;60.84;102345.91;2421134;28;44682;-93
2022/12/18 00:20:36;;;;;;;;;61.25;46.00;;;;;-0.53;60.41;102344.19;2430825;28;47075;-92
2022/12/18 00:21:46;;;;;;;;;66.50;50.25;;;;;-0.52;60.74;102344.25;2431096;28;45336;-92
2022/12/18 00:22:56;;;;;;;;;63.00;46.75;;;;;-0.54;61.12;102340.72;2423260;28;48827;-93
2022/12/18 00:24:08;;;;;;;;;73.25;52.00;;;;;-0.53;60.45;102350.25;2424169;28;45154;-91
2022/12/18 00:25:18;;;;;;;;;58.75;45.75;;;;;-0.54;60.29;102342.44;2423961;28;47106;-92
2022/12/18 00:26:32;;;;;;;;;62.00;49.50;;;;;-0.54;60.62;102342.44;2424301;28;44656;-93
2022/12/18 00:27:42;;;;;;;;;63.00;48.00;;;;;-0.54;60.30;102351.06;2418500;28;47058;-93
2022/12/18 00:28:55;;;;;;;;;68.25;49.75;;;;;-0.53;60.57;102354.53;2418548;28;45425;-92
2022/12/18 00:30:06;;;;;;;;;59.25;47.50;;;;;-0.54;60.82;102350.19;2424010;28;47371;-91
2022/12/18 00:31:19;;;;;;;;;66.25;49.25;;;;;-0.54;60.48;102348.47;2432695;28;45182;-93
2022/12/18 00:32:30;;;;;;;;;65.25;50.00;;;;;-0.55;60.80;102354.47;2426314;28;47780;-93
2022/12/18 00:33:40;;;;;;;;;66.25;50.75;;;;;-0.54;60.66;102356.22;2423001;28;44920;-92
2022/12/18 00:34:51;;;;;;;;;61.00;48.75;;;;;-0.57;60.60;102344.06;2431627;28;46082;-92
2022/12/18 00:36:05;;;;;;;;;65.25;49.00;;;;;-0.57;60.73;102353.53;2430989;28;45311;-93
2022/12/18 00:37:15;;;;;;;;;58.00;44.50;;;;;-0.57;60.50;102353.53;2423712;28;46498;-91
2022/12/18 00:38:26;;;;;;;;;62.25;47.00;;;;;-0.56;60.57;102360.47;2423223;28;44750;-93
2022/12/18 00:39:36;;;;;;;;;58.00;47.00;;;;;-0.57;60.22;102354.41;2433560;28;46924;-92
2022/12/18 00:40:48;;;;;;;;;62.50;48.50;;;;;-0.58;60.32;102346.59;2435162;28;45174;-92
2022/12/18 00:43:27;;;;;;;;;62.50;47.75;;;;;-0.58;60.43;102360.41;2441446;28;45231;-92
2022/12/18 00:44:38;;;;;;;;;52.00;43.50;;;;;-0.61;60.70;102362.84;2430862;28;48320;-91
2022/12/18 00:45:48;;;;;;;;;63.50;46.75;;;;;-0.62;60.61;102360.22;2424036;28;45262;-93
2022/12/18 00:46:59;;;;;;;;;61.50;47.50;;;;;-0.63;60.48;102358.44;2430775;28;46770;-92
2022/12/18 00:48:09;;;;;;;;;65.25;48.50;;;;;-0.62;60.39;102360.22;2431057;28;45353;-93
2022/12/18 00:49:20;;;;;;;;;59.25;46.75;;;;;-0.63;60.55;102363.63;2423813;28;48366;-93
2022/12/18 00:50:30;;;;;;;;;59.75;44.50;;;;;-0.63;60.68;102359.34;2430818;28;44878;-92
2022/12/18 00:51:41;;;;;;;;;60.25;46.75;;;;;-0.62;60.59;102365.38;2423643;28;46970;-92
2022/12/18 00:52:51;;;;;;;;;58.00;44.25;;;;;-0.64;60.64;102357.56;2423564;28;45364;-92
2022/12/18 00:54:02;;;;;;;;;62.25;46.50;;;;;-0.64;60.64;102362.72;2422982;28;47072;-92
2022/12/18 00:55:13;;;;;;;;;60.50;47.25;;;;;-0.63;60.63;102358.44;2416461;28;45325;-92
2022/12/18 00:56:24;;;;;;;;;64.50;49.25;;;;;-0.63;60.70;102359.34;2414673;28;46542;-93
2022/12/18 00:57:34;;;;;;;;;60.00;47.00;;;;;-0.62;60.45;102355.06;2423874;28;44785;-92
2022/12/18 00:58:45;;;;;;;;;44.75;40.00;;;;;-0.63;60.62;102358.44;2423737;28;47517;-92
2022/12/18 00:59:55;;;;;;;;;60.25;43.25;;;;;-0.61;60.67;102357.69;2430627;28;45510;-92
2022/12/18 01:01:06;;;;;;;;;64.25;48.25;;;;;-0.62;60.63;102360.22;2423734;28;48341;-93
2022/12/18 01:02:16;;;;;;;;;61.00;46.50;;;;;-0.64;60.25;102349.81;2424268;28;45214;-92
2022/12/18 01:03:27;;;;;;;;;62.00;48.25;;;;;-0.63;60.40;102353.28;2432463;28;46942;-92
2022/12/18 01:04:37;;;;;;;;;60.50;46.00;;;;;-0.62;60.30;102357.63;2435647;28;44620;-92
2022/12/18 01:05:47;;;;;;;;;62.75;49.00;;;;;-0.65;60.69;102350.66;2432293;28;46950;-91
2022/12/18 01:06:58;;;;;;;;;55.25;43.75;;;;;-0.64;60.54;102349.81;2425768;28;45236;-92
2022/12/18 01:08:09;;;;;;;;;69.00;49.25;;;;;-0.64;60.26;102357.56;2425549;28;46237;-92
2022/12/18 01:09:19;;;;;;;;;66.00;47.50;;;;;-0.65;60.42;102352.34;2432834;28;45221;-93
2022/12/18 01:10:29;;;;;;;;;59.50;45.25;;;;;-0.65;60.28;102349.75;2425510;28;48208;-90
2022/12/18 01:11:40;;;;;;;;;57.50;46.00;;;;;-0.66;60.56;102342.81;2435353;28;44668;-92
2022/12/18 01:12:51;;;;;;;;;51.50;45.25;;;;;-0.68;60.45;102348.81;2426351;28;47413;-93
2022/12/18 01:14:02;;;;;;;;;61.00;44.50;;;;;-0.66;60.19;102335.06;2425877;28;44760;-92
2022/12/18 01:15:13;;;;;;;;;62.75;46.50;;;;;-0.69;60.15;102339.28;2415617;28;47313;-93
2022/12/18 01:16:24;;;;;;;;;62.50;49.00;;;;;-0.68;59.96;102335.03;2425489;28;45320;-92
2022/12/18 01:17:35;;;;;;;;;57.00;46.25;;;;;-0.70;60.24;102329.81;2425238;28;47496;-92
2022/12/18 01:18:45;;;;;;;;;66.25;49.50;;;;;-0.69;60.36;102338.41;2425571;28;45279;-92
2022/12/18 01:19:56;;;;;;;;;62.75;50.50;;;;;-0.71;60.27;102335.78;2434282;28;47459;-92
2022/12/18 01:21:08;;;;;;;;;60.75;49.00;;;;;-0.71;60.23;102338.38;2431608;28;45241;-93
2022/12/18 01:22:18;;;;;;;;;50.00;41.50;;;;;-0.73;60.15;102334.84;2425704;28;48626;-92
2022/12/18 01:23:28;;;;;;;;;62.25;49.00;;;;;-0.72;60.54;102333.16;2425446;28;44762;-92
2022/12/18 01:24:39;;;;;;;;;65.75;51.25;;;;;-0.72;60.05;102335.72;2435006;28;46957;-92
2022/12/18 01:25:49;;;;;;;;;66.00;49.00;;;;;-0.73;59.77;102333.94;2432264;28;44516;-92
2022/12/18 01:27:00;;;;;;;;;66.75;50.50;;;;;-0.75;60.46;102333.91;2424932;28;47221;-92
2022/12/18 01:28:10;;;;;;;;;39.50;31.00;;;;;-0.74;60.26;102340.81;2433657;28;45390;-92
2022/12/18 01:29:21;;;;;;;;;60.50;43.75;;;;;-0.75;60.03;102338.19;2428384;28;47429;-92
2022/12/18 01:30:31;;;;;;;;;56.75;43.25;;;;;-0.75;60.26;102338.19;2425551;28;44600;-91
2022/12/18 01:31:42;;;;;;;;;65.00;47.00;;;;;-0.76;59.92;102347.63;2425044;28;47142;-92
2022/12/18 01:32:52;;;;;;;;;63.25;47.75;;;;;-0.77;60.04;102340.72;2428046;28;45385;-92
2022/12/18 01:34:04;;;;;;;;;61.50;46.00;;;;;-0.78;59.92;102344.09;2431740;28;48392;-92
2022/12/18 01:35:14;;;;;;;;;65.75;50.00;;;;;-0.80;60.36;102345.75;2422210;28;45357;-91
2022/12/18 01:36:27;;;;;;;;;55.75;43.50;;;;;-0.79;60.13;102342.31;2421227;28;47291;-92
2022/12/18 01:37:38;;;;;;;;;61.75;46.00;;;;;-0.80;60.61;102340.59;2439609;28;44747;-91
2022/12/18 01:38:49;;;;;;;;;60.00;43.75;;;;;-0.81;59.96;102339.69;2432172;28;47219;-91
2022/12/18 01:39:59;;;;;;;;;62.00;49.75;;;;;-0.80;60.13;102345.75;2425569;28;45206;-92
2022/12/18 01:41:10;;;;;;;;;59.25;47.00;;;;;-0.83;60.64;102343.03;2425334;28;47450;-92
2022/12/18 01:42:21;;;;;;;;;63.75;48.00;;;;;-0.83;60.46;102340.44;2435595;28;44765;-91
2022/12/18 01:43:44;;;;;;;;;62.75;51.50;;;;;-0.83;60.53;102340.44;2431642;28;47411;-91
2022/12/18 01:45:11;;;;;;;;;60.75;49.00;;;;;-0.83;60.41;102337.88;2422470;28;45221;-92
2022/12/18 01:46:26;;;;;;;;;61.75;47.75;;;;;-0.86;60.43;102335.16;2422951;28;47043;-92
2022/12/18 01:47:39;;;;;;;;;62.25;44.50;;;;;-0.84;60.33;102342.13;2424549;28;45189;-92
2022/12/18 01:48:57;;;;;;;;;60.00;49.25;;;;;-0.85;60.18;102336.94;2435285;28;47208;-92
2022/12/18 01:50:12;;;;;;;;;61.75;48.00;;;;;-0.83;60.39;102345.63;2427403;28;45244;-91
2022/12/18 01:51:23;;;;;;;;;60.25;46.50;;;;;-0.85;59.95;102342.09;2424640;28;47118;-92
2022/12/18 01:52:35;;;;;;;;;64.75;48.50;;;;;-0.85;60.18;102336.94;2416495;28;44727;-91
2022/12/18 01:53:47;;;;;;;;;60.75;46.50;;;;;-0.84;59.93;102339.56;2425279;28;47276;-93
2022/12/18 01:54:59;;;;;;;;;65.75;48.75;;;;;-0.84;60.00;102331.81;2425123;28;45443;-91
2022/12/18 01:56:14;;;;;;;;;59.75;47.25;;;;;-0.86;60.23;102327.41;2434985;28;48127;-91
2022/12/18 01:57:25;;;;;;;;;66.50;51.50;;;;;-0.85;59.88;102329.19;2441791;28;44709;-90
2022/12/18 01:58:46;;;;;;;;;64.00;46.50;;;;;-0.85;59.72;102326.59;2430538;28;47566;-91
2022/12/18 02:00:02;;;;;;;;;62.25;50.50;;;;;-0.86;59.81;102333.47;2417050;28;45198;-92
2022/12/18 02:01:12;;;;;;;;;68.50;49.75;;;;;-0.86;60.36;102335.16;2420140;28;47418;-92
2022/12/18 02:02:23;;;;;;;;;51.75;45.50;;;;;-0.87;60.09;102329.13;2429342;28;45235;-92
2022/12/18 02:03:33;;;;;;;;;66.75;51.00;;;;;-0.89;60.30;102328.19;2431701;28;47123;-92
2022/12/18 02:04:43;;;;;;;;;64.00;48.75;;;;;-0.88;60.22;102326.47;2425291;28;45280;-92
2022/12/18 02:06:00;;;;;;;;;60.50;47.00;;;;;-0.89;60.17;102323.03;2434416;28;46867;-91
2022/12/18 02:07:28;;;;;;;;;67.75;48.75;;;;;-0.88;60.35;102318.72;2432041;28;45277;-92
2022/12/18 02:08:50;;;;;;;;;64.75;49.50;;;;;-0.90;60.07;102316.09;2422564;28;48494;-92
2022/12/18 02:10:24;;;;;;;;;60.50;45.75;;;;;-0.93;60.63;102306.50;2434594;28;45387;-91
2022/12/18 02:11:43;;;;;;;;;60.00;49.75;;;;;-0.91;60.24;102302.28;2440144;28;46245;-92
2022/12/18 02:13:08;;;;;;;;;70.25;55.00;;;;;-0.93;59.94;102303.94;2431540;28;45248;-92
2022/12/18 02:14:46;;;;;;;;;63.75;47.75;;;;;-0.92;60.17;102310.88;2431083;28;48687;-92
2022/12/18 02:16:40;;;;;;;;;60.50;48.50;;;;;-0.93;59.80;102305.63;2427953;28;45248;-91
2022/12/18 02:17:58;;;;;;;;;59.00;46.25;;;;;-0.95;59.93;102308.16;2411241;28;48097;-92
2022/12/18 02:19:43;;;;;;;;;64.50;49.00;;;;;-0.94;60.27;102306.47;2436061;28;45244;-93
2022/12/18 02:21:05;;;;;;;;;66.25;50.50;;;;;-0.94;60.08;102303.88;2399256;28;47202;-91
2022/12/18 02:22:29;;;;;;;;;64.75;51.00;;;;;-0.94;60.01;102309.91;2422482;28;45268;-92
2022/12/18 02:24:10;;;;;;;;;69.00;51.50;;;;;-0.96;60.34;102303.81;2436289;28;47567;-93
2022/12/18 02:26:12;;;;;;;;;63.00;47.75;;;;;-0.97;60.37;102307.22;2432188;28;44760;-92
2022/12/18 02:27:22;;;;;;;;;66.75;50.00;;;;;-0.98;60.10;102300.28;2393433;28;45273;-92
2022/12/18 02:28:46;;;;;;;;;60.75;47.50;;;;;-0.97;60.23;102296.00;2426179;28;45777;-92
2022/12/18 02:29:59;;;;;;;;;65.00;50.50;;;;;-0.99;60.32;102295.97;2425968;28;48073;-92
2022/12/18 02:31:16;;;;;;;;;72.75;52.00;;;;;-0.99;60.56;102298.53;2425094;28;45250;-91
2022/12/18 02:32:34;;;;;;;;;59.75;45.50;;;;;-0.99;60.42;102293.38;2425332;28;48246;-92
2022/12/18 02:33:45;;;;;;;;;59.00;44.25;;;;;-0.99;60.60;102292.50;2425786;28;45368;-92
2022/12/18 02:34:59;;;;;;;;;62.25;48.00;;;;;-0.99;60.26;102298.53;2424708;28;48291;-91
2022/12/18 02:36:12;;;;;;;;;66.50;51.00;;;;;-1.00;59.95;102296.75;2425321;28;45278;-92
2022/12/18 02:37:27;;;;;;;;;66.25;51.50;;;;;-0.99;60.03;102289.91;2425226;28;48401;-92
2022/12/18 02:38:39;;;;;;;;;62.50;49.00;;;;;-1.00;60.35;102296.75;2425146;28;45202;-92
2022/12/18 02:39:52;;;;;;;;;65.25;48.25;;;;;-1.01;60.54;102289.81;2420288;28;48641;-92
2022/12/18 02:41:04;;;;;;;;;41.50;34.00;;;;;-1.00;60.38;102290.72;2417204;28;45249;-92
2022/12/18 02:42:16;;;;;;;;;61.50;47.25;;;;;-1.00;59.95;102280.38;2424174;28;47365;-92
2022/12/18 02:43:26;;;;;;;;;57.25;45.50;;;;;-1.02;59.64;102278.63;2422119;28;45241;-92
2022/12/18 02:44:49;;;;;;;;;62.25;49.00;;;;;-1.00;59.94;102286.44;2429301;28;47139;-92
2022/12/18 02:46:01;;;;;;;;;64.75;49.25;;;;;-1.02;60.40;102277.75;2441191;28;45210;-92
2022/12/18 02:47:14;;;;;;;;;66.75;51.00;;;;;-1.02;60.08;102282.91;2431597;28;47298;-92
2022/12/18 02:48:30;;;;;;;;;59.25;45.50;;;;;-1.00;60.21;102281.28;2424832;28;45696;-91
2022/12/18 02:50:07;;;;;;;;;63.25;48.00;;;;;-1.02;60.29;102281.22;2430564;28;48231;-91
2022/12/18 02:51:28;;;;;;;;;59.50;46.75;;;;;-1.02;60.40;102277.75;2428468;28;45299;-93
2022/12/18 02:52:45;;;;;;;;;64.00;48.00;;;;;-1.02;59.71;102267.44;2424599;28;48354;-92
2022/12/18 02:54:10;;;;;;;;;63.50;48.50;;;;;-1.03;59.95;102274.28;2425724;28;44704;-92
2022/12/18 02:55:26;;;;;;;;;63.25;47.00;;;;;-1.02;60.57;102275.19;2421197;28;47480;-92
2022/12/18 02:56:45;;;;;;;;;65.00;47.25;;;;;-1.04;60.00;102264.75;2432124;28;45166;-91
2022/12/18 02:58:03;;;;;;;;;64.25;49.00;;;;;-1.02;60.48;102268.31;2427054;28;46247;-92
2022/12/18 02:59:23;;;;;;;;;61.25;47.50;;;;;-1.02;60.57;102264.84;2425454;28;45265;-92
2022/12/18 03:01:11;;;;;;;;;62.75;49.00;;;;;-1.04;60.28;102259.59;2425987;28;47784;-92
2022/12/18 03:02:51;;;;;;;;;62.50;46.75;;;;;-1.03;60.44;102266.53;2408917;28;44897;-91
2022/12/18 03:04:09;;;;;;;;;60.25;43.75;;;;;-1.04;59.98;102258.75;2425927;28;45417;-91
2022/12/18 03:05:25;;;;;;;;;57.50;45.25;;;;;-1.04;59.93;102257.03;2426440;28;45257;-91
2022/12/18 03:06:40;;;;;;;;;65.00;51.00;;;;;-1.05;60.67;102260.44;2425225;28;47729;-91
2022/12/18 03:08:01;;;;;;;;;68.00;49.00;;;;;-1.04;60.59;102262.19;2425101;28;44849;-91
2022/12/18 03:09:19;;;;;;;;;71.00;52.50;;;;;-1.06;60.31;102255.22;2425977;28;47296;-91
2022/12/18 03:10:34;;;;;;;;;64.00;46.25;;;;;-1.04;60.90;102257.03;2425402;28;44611;-91
2022/12/18 03:13:36;;;;;;;;;67.25;50.50;;;;;-1.05;59.80;102259.56;2436145;28;45326;-91
2022/12/18 03:15:10;;;;;;;;;65.25;51.00;;;;;-1.05;59.83;102256.97;2431295;28;48222;-91
2022/12/18 03:16:25;;;;;;;;;71.50;53.50;;;;;-1.07;60.10;102264.66;2427098;28;45430;-91
2022/12/18 03:17:40;;;;;;;;;63.50;48.75;;;;;-1.06;60.22;102261.25;2434865;28;46414;-90
2022/12/18 03:19:18;;;;;;;;;55.75;42.75;;;;;-1.06;59.96;102271.56;2422062;28;44777;-92
2022/12/18 03:20:33;;;;;;;;;61.00;45.50;;;;;-1.07;60.82;102266.34;2419960;28;47396;-91
2022/12/18 03:21:48;;;;;;;;;64.75;51.50;;;;;-1.07;59.73;102264.66;2425311;28;45439;-91
2022/12/18 03:23:15;;;;;;;;;52.50;44.25;;;;;-1.07;60.09;102266.34;2424735;28;47474;-91
2022/12/18 03:24:30;;;;;;;;;63.25;51.50;;;;;-1.07;60.21;102275.00;2424802;28;44702;-90
2022/12/18 03:25:43;;;;;;;;;65.00;46.75;;;;;-1.08;60.32;102268.06;2424917;28;48091;-91
2022/12/18 03:27:00;;;;;;;;;63.75;50.50;;;;;-1.07;60.33;102279.25;2425054;28;44699;-92
2022/12/18 03:28:16;;;;;;;;;59.25;48.00;;;;;-1.08;60.42;102264.59;2424783;28;47127;-90
2022/12/18 03:29:35;;;;;;;;;65.00;48.00;;;;;-1.08;60.02;102269.75;2425443;28;45316;-91
2022/12/18 03:30:49;;;;;;;;;61.00;48.75;;;;;-1.09;60.06;102262.84;2421619;28;48190;-92
2022/12/18 03:32:10;;;;;;;;;61.50;49.25;;;;;-1.07;60.50;102268.94;2421822;28;45474;-91
2022/12/18 03:33:54;;;;;;;;;53.50;43.00;;;;;-1.07;60.48;102263.78;2435012;28;45427;-91
2022/12/18 03:35:05;;;;;;;;;66.50;47.75;;;;;-1.08;60.79;102259.41;2431212;28;45249;-91
2022/12/18 03:36:16;;;;;;;;;60.50;44.50;;;;;-1.08;60.46;102259.41;2434194;28;45674;-91
2022/12/18 03:37:26;;;;;;;;;61.00;49.00;;;;;-1.08;59.96;102262.00;2441183;28;45261;-92
2022/12/18 03:38:37;;;;;;;;;63.00;51.25;;;;;-1.07;60.05;102267.25;2430713;28;48241;-92
2022/12/18 03:39:47;;;;;;;;;66.75;51.75;;;;;-1.08;60.37;102268.06;2433731;28;45324;-91
2022/12/18 03:41:16;;;;;;;;;62.25;49.25;;;;;-1.08;60.32;102262.00;2440568;28;45426;-92
2022/12/18 03:42:45;;;;;;;;;63.00;47.50;;;;;-1.09;59.95;102263.72;2441653;28;45150;-91
2022/12/18 03:44:20;;;;;;;;;63.25;45.00;;;;;-1.08;60.43;102267.16;2441887;28;46538;-91
2022/12/18 03:45:41;;;;;;;;;62.00;44.75;;;;;-1.09;60.70;102270.59;2421942;28;45257;-90
2022/12/18 03:46:58;;;;;;;;;67.25;53.25;;;;;-1.10;60.42;102259.38;2421696;28;47463;-92
2022/12/18 03:48:22;;;;;;;;;55.25;46.50;;;;;-1.09;60.35;102260.25;2433040;28;44650;-91
2022/12/18 03:49:43;;;;;;;;;61.75;48.00;;;;;-1.08;60.68;102262.00;2436101;28;48479;-91
2022/12/18 03:50:59;;;;;;;;;58.75;47.75;;;;;-1.08;59.96;102264.59;2425699;28;44727;-92
2022/12/18 03:52:19;;;;;;;;;61.00;47.00;;;;;-1.09;59.92;102260.25;2434641;28;46472;-91
2022/12/18 03:53:29;;;;;;;;;61.00;49.25;;;;;-1.08;60.56;102265.47;2430593;28;44783;-92
2022/12/18 03:54:42;;;;;;;;;62.50;47.75;;;;;-1.08;60.21;102252.56;2434242;28;46209;-91
2022/12/18 03:55:55;;;;;;;;;58.75;46.25;;;;;-1.10;59.78;102249.06;2431257;28;45264;-91
2022/12/18 03:57:12;;;;;;;;;64.75;52.25;;;;;-1.09;60.33;102247.34;2424046;28;47364;-91
2022/12/18 03:58:25;;;;;;;;;63.25;48.00;;;;;-1.10;60.62;102249.06;2426556;28;45262;-91
2022/12/18 03:59:39;;;;;;;;;60.00;47.50;;;;;-1.09;60.68;102249.94;2434120;28;48221;-91
2022/12/18 04:00:52;;;;;;;;;67.00;48.00;;;;;-1.11;60.02;102238.69;2431351;28;45283;-91
2022/12/18 04:02:06;;;;;;;;;64.00;50.25;;;;;-1.12;60.48;102237.78;2424617;28;46451;-91
2022/12/18 04:03:19;;;;;;;;;67.25;45.75;;;;;-1.10;60.57;102245.56;2425653;28;45209;-92
2022/12/18 04:04:31;;;;;;;;;58.25;44.00;;;;;-1.11;60.42;102233.50;2425018;28;47610;-91
2022/12/18 04:05:43;;;;;;;;;63.00;48.75;;;;;-1.11;60.38;102236.09;2434014;28;45292;-91
2022/12/18 04:06:55;;;;;;;;;59.75;47.00;;;;;-1.10;60.07;102235.25;2431028;28;47272;-92
2022/12/18 04:08:06;;;;;;;;;67.75;52.00;;;;;-1.11;60.35;102230.94;2434254;28;45268;-91
2022/12/18 04:09:16;;;;;;;;;68.50;50.00;;;;;-1.10;60.11;102232.69;2430694;28;47853;-92
2022/12/18 04:10:27;;;;;;;;;61.75;48.25;;;;;-1.11;60.42;102230.94;2424339;28;44731;-91
2022/12/18 04:11:37;;;;;;;;;61.75;50.00;;;;;-1.10;60.30;102222.34;2432583;28;45513;-91
2022/12/18 04:12:47;;;;;;;;;61.00;48.25;;;;;-1.10;60.42;102214.59;2441578;28;44773;-91
2022/12/18 04:13:58;;;;;;;;;61.00;46.75;;;;;-1.09;60.59;102221.53;2441462;28;45328;-91
2022/12/18 04:15:10;;;;;;;;;63.00;49.00;;;;;-1.09;60.27;102216.38;2431218;28;45435;-91
2022/12/18 04:16:20;;;;;;;;;64.00;48.00;;;;;-1.09;60.05;102225.00;2434230;28;45391;-91
2022/12/18 04:17:31;;;;;;;;;58.75;45.25;;;;;-1.08;60.09;102224.19;2440272;28;45402;-90
2022/12/18 04:18:41;;;;;;;;;63.00;48.25;;;;;-1.11;60.18;102216.31;2431044;28;47961;-91
2022/12/18 04:19:52;;;;;;;;;49.00;42.50;;;;;-1.09;60.24;102225.00;2433449;28;45359;-92
2022/12/18 04:21:03;;;;;;;;;60.75;47.00;;;;;-1.07;60.48;102225.06;2438197;28;46842;-92
2022/12/18 04:22:13;;;;;;;;;62.00;49.00;;;;;-1.08;60.06;102233.63;2424340;28;45261;-91
2022/12/18 04:23:24;;;;;;;;;58.25;45.25;;;;;-1.09;60.62;102229.28;2423635;28;47129;-91
2022/12/18 04:24:34;;;;;;;;;64.50;50.00;;;;;-1.09;60.51;102224.13;2423936;28;45203;-92
2022/12/18 04:25:47;;;;;;;;;67.50;52.25;;;;;-1.08;60.43;102228.44;2433586;28;47465;-91
2022/12/18 04:26:57;;;;;;;;;68.75;48.25;;;;;-1.09;60.11;102231.88;2430199;28;45398;-92
2022/12/18 04:28:07;;;;;;;;;64.25;50.00;;;;;-1.08;60.21;102225.88;2433484;28;47442;-92
2022/12/18 04:29:18;;;;;;;;;65.75;48.00;;;;;-1.09;60.60;102229.28;2430944;28;44769;-92
2022/12/18 04:30:28;;;;;;;;;65.75;50.25;;;;;-1.08;61.01;102228.44;2433030;28;47498;-92
2022/12/18 04:31:38;;;;;;;;;63.75;47.50;;;;;-1.10;60.74;102228.41;2430966;28;45178;-91
2022/12/18 04:32:49;;;;;;;;;66.25;48.50;;;;;-1.08;60.37;102228.44;2432716;28;47571;-91
2022/12/18 04:33:59;;;;;;;;;59.00;44.00;;;;;-1.08;60.46;102236.19;2438137;28;45176;-92
2022/12/18 04:35:11;;;;;;;;;65.50;47.50;;;;;-1.08;60.46;102231.03;2429651;28;47352;-91
2022/12/18 04:36:22;;;;;;;;;27.00;18.75;;;;;-1.08;60.69;102238.78;2423694;28;44768;-91
2022/12/18 04:37:32;;;;;;;;;59.75;44.00;;;;;-1.07;60.53;102232.81;2423691;28;46954;-90
2022/12/18 04:38:42;;;;;;;;;61.75;50.25;;;;;-1.09;60.34;102224.13;2433600;28;45236;-91
2022/12/18 04:39:53;;;;;;;;;42.75;30.75;;;;;-1.10;60.22;102217.19;2430793;28;47541;-92
2022/12/18 04:41:03;;;;;;;;;60.25;47.50;;;;;-1.07;60.89;102230.22;2424141;28;45329;-91
2022/12/18 04:42:14;;;;;;;;;56.25;46.25;;;;;-1.07;60.97;102225.06;2423838;28;47698;-91
2022/12/18 04:43:24;;;;;;;;;66.00;51.00;;;;;-1.07;60.57;102227.66;2424159;28;45371;-91
2022/12/18 04:44:34;;;;;;;;;54.25;45.75;;;;;-1.08;60.36;102228.44;2423635;28;47041;-91
2022/12/18 04:45:45;;;;;;;;;52.50;46.25;;;;;-1.07;60.44;102232.81;2424187;28;45178;-91
2022/12/18 04:46:55;;;;;;;;;59.50;48.50;;;;;-1.07;60.30;102237.97;2423840;28;48595;-91
2022/12/18 04:48:06;;;;;;;;;64.75;48.75;;;;;-1.08;60.45;102234.50;2423751;28;44629;-91
2022/12/18 04:49:16;;;;;;;;;62.75;48.50;;;;;-1.06;60.51;102247.47;2430181;28;47288;-90
2022/12/18 04:50:27;;;;;;;;;62.25;47.75;;;;;-1.07;60.28;102244.03;2433326;28;45229;-90
2022/12/18 04:51:38;;;;;;;;;61.00;46.25;;;;;-1.07;60.97;102236.28;2430899;28;47259;-91
2022/12/18 04:52:48;;;;;;;;;62.75;52.00;;;;;-1.07;60.44;102237.97;2433942;28;45233;-91
2022/12/18 04:53:59;;;;;;;;;63.00;46.25;;;;;-1.08;60.35;102243.94;2429832;28;48487;-91
2022/12/18 04:55:09;;;;;;;;;62.75;47.75;;;;;-1.10;60.58;102237.84;2430807;28;45254;-90
2022/12/18 04:56:20;;;;;;;;;61.25;49.50;;;;;-1.08;60.03;102239.66;2432140;28;47284;-91
2022/12/18 04:57:30;;;;;;;;;66.50;50.25;;;;;-1.09;60.06;102242.19;2430075;28;45256;-91
2022/12/18 04:58:43;;;;;;;;;65.25;52.25;;;;;-1.09;60.33;102240.50;2433316;28;48354;-91
2022/12/18 04:59:53;;;;;;;;;61.50;48.00;;;;;-1.10;60.30;102237.84;2430771;28;45450;-91
2022/12/18 05:01:03;;;;;;;;;60.00;48.00;;;;;-1.12;60.60;102237.78;2423775;28;47980;-91
2022/12/18 05:02:14;;;;;;;;;60.50;48.25;;;;;-1.10;60.25;102243.00;2423920;28;45333;-91
2022/12/18 05:03:24;;;;;;;;;56.25;46.00;;;;;-1.11;60.05;102241.25;2429017;28;48197;-91
2022/12/18 05:04:34;;;;;;;;;65.25;50.25;;;;;-1.12;60.22;102245.53;2431286;28;45355;-91
2022/12/18 05:05:45;;;;;;;;;62.00;49.75;;;;;-1.10;60.49;102248.16;2423059;28;48238;-91
2022/12/18 05:06:55;;;;;;;;;63.25;48.75;;;;;-1.11;60.56;102244.69;2423909;28;44619;-91
2022/12/18 05:08:05;;;;;;;;;61.25;43.75;;;;;-1.11;60.61;102246.41;2424360;28;46048;-91
2022/12/18 05:09:16;;;;;;;;;57.75;46.00;;;;;-1.14;60.41;102242.00;2433926;28;45185;-90
2022/12/18 05:10:26;;;;;;;;;64.75;47.25;;;;;-1.11;60.21;102236.94;2430528;28;46455;-91
2022/12/18 05:11:36;;;;;;;;;60.75;47.50;;;;;-1.13;60.36;102247.22;2423787;28;45163;-91
2022/12/18 05:12:59;;;;;;;;;52.50;43.00;;;;;-1.15;60.59;102243.69;2433427;28;47505;-91
2022/12/18 05:14:09;;;;;;;;;63.25;50.25;;;;;-1.13;60.23;102254.97;2426265;28;45251;-91
2022/12/18 05:15:19;;;;;;;;;64.00;53.00;;;;;-1.14;60.45;102242.00;2433439;28;46180;-91
2022/12/18 05:16:30;;;;;;;;;61.00;48.50;;;;;-1.16;60.26;102254.84;2430711;28;45231;-91
2022/12/18 05:17:40;;;;;;;;;59.75;46.50;;;;;-1.17;60.37;102253.09;2426541;28;48079;-91
2022/12/18 05:18:50;;;;;;;;;63.50;44.50;;;;;-1.16;60.57;102252.25;2433550;28;44681;-91
2022/12/18 05:20:01;;;;;;;;;61.50;49.00;;;;;-1.18;60.29;102245.25;2433167;28;47234;-91
2022/12/18 05:21:11;;;;;;;;;62.75;49.25;;;;;-1.17;60.71;102260.84;2427782;28;45475;-91
2022/12/18 05:22:21;;;;;;;;;63.25;49.25;;;;;-1.19;60.67;102252.16;2423412;28;46900;-91
2022/12/18 05:23:35;;;;;;;;;64.00;50.00;;;;;-1.17;60.51;102253.09;2433601;28;45259;-91
2022/12/18 05:24:45;;;;;;;;;62.00;46.25;;;;;-1.16;60.32;102259.13;2433384;28;47027;-91
2022/12/18 05:25:58;;;;;;;;;64.50;49.00;;;;;-1.18;60.72;102253.91;2425655;28;45489;-91
2022/12/18 05:27:08;;;;;;;;;60.75;50.00;;;;;-1.18;60.66;102253.00;2432769;28;48006;-91
2022/12/18 05:28:20;;;;;;;;;54.75;42.50;;;;;-1.19;60.60;102253.84;2421524;28;44805;-92
2022/12/18 05:29:30;;;;;;;;;60.50;43.00;;;;;-1.19;60.84;102259.00;2421127;28;48224;-91
2022/12/18 05:30:51;;;;;;;;;52.25;44.00;;;;;-1.19;60.69;102264.16;2443127;28;45412;-91
2022/12/18 05:32:01;;;;;;;;;66.50;50.75;;;;;-1.18;60.36;102263.31;2430328;28;47069;-91
2022/12/18 05:33:11;;;;;;;;;63.25;46.75;;;;;-1.19;60.46;102269.31;2432230;28;44745;-90
2022/12/18 05:34:22;;;;;;;;;59.75;44.75;;;;;-1.18;60.64;102269.38;2439461;28;47407;-91
2022/12/18 05:35:32;;;;;;;;;66.75;49.75;;;;;-1.19;60.69;102270.22;2428714;28;45354;-91
2022/12/18 05:36:43;;;;;;;;;61.25;48.50;;;;;-1.19;60.58;102277.06;2433322;28;45442;-91
2022/12/18 05:37:53;;;;;;;;;62.25;47.00;;;;;-1.19;60.54;102280.53;2434402;28;44758;-91
2022/12/18 05:39:04;;;;;;;;;58.25;47.50;;;;;-1.19;60.66;102280.53;2431122;28;47666;-91
2022/12/18 05:40:14;;;;;;;;;58.25;46.25;;;;;-1.19;60.17;102271.91;2436470;28;45414;-92